Mackenzie Airport
CYZY : now visible

Airfield :











YOU CAN JOIN US ON...

 
LOGIN :

Register | Disclaimer

   EN    FR    IT 

 









Legend :    VFR   Marginal VFR   IFR   Intensive IFR   Very Intensive IFR
Visi :
Ceiling :
>= 8 km
>= 3000ft
5 to 8 km
1000 to 3000 ft
1500m to 5 km
500 to 1000 ft
800 to 1500m
200 to 500 ft
< 800m
< 200 ft
Symbols :   Thunderstorms  Fog  Heavy snow  Heavy precipitations  Wind > 20 kt






- Airport Elevation : 2264 ft
- IATA code : YZY


CYZY - Mackenzie

CURRENT METAR :
  • 222200Z AUTO VRB04KT 9SM CLR 25/04 A2966 RMK SLP047 DENSITY ALT 4300FT

EXPIRED METARs :
  • 222100Z AUTO VRB04KT 9SM CLR 24/04 A2967 RMK SLP047 DENSITY ALT 4200FT
  • 222000Z AUTO 19004KT 140V280 9SM CLR 24/03 A2967 RMK SLP046 DENSITY ALT 4100FT

TAF TAF CYZY
Valid from the 22 at 19:00 until the 23 at 07:00 UTC


221842Z 2219/2307 VRB03KT P6SM SKC
BECMG 2219/2221 24010KT
FM222200 26010KT P6SM FEW080 SCT200
BECMG 2222/2224 28010KT
FM230200 34008KT P6SM SKC RMK FCST BASED ON AUTO OBS. NXT FCST BY 230100Z
CZVR FIR / North America



MET'MAP, your aeronautical weather chart ! - Copyright ORBIFLY December 2007 - Disclaimer

ORBIFLY MET'MAP TEAM :

Programming & Development : Alexandra Zaïnal
Concept & original design : Baudouin d'Aumeries
Assistance for programming : Marc-Olivier Méhu
Technical & hardware support : Manuel Goepfert

Contact : metmap@orbifly.com




SOURCES & CREDITS :

   NOAA       Earth
Advisory